sensor_id;sensor_type;location;lat;lon;timestamp;P1;durP1;ratioP1;P2;durP2;ratioP2
3427;SDS011;1727;42.624;23.406;2023-03-11T00:01:42;14.03;;;8.97;;
3427;SDS011;1727;42.624;23.406;2023-03-11T00:04:09;20.17;;;11.63;;
3427;SDS011;1727;42.624;23.406;2023-03-11T00:06:36;16.70;;;9.63;;
3427;SDS011;1727;42.624;23.406;2023-03-11T00:09:04;11.10;;;9.00;;
3427;SDS011;1727;42.624;23.406;2023-03-11T00:11:31;28.43;;;14.27;;
3427;SDS011;1727;42.624;23.406;2023-03-11T00:13:57;9.20;;;8.07;;
3427;SDS011;1727;42.624;23.406;2023-03-11T00:16:24;10.37;;;9.27;;
3427;SDS011;1727;42.624;23.406;2023-03-11T00:18:53;12.57;;;10.63;;
3427;SDS011;1727;42.624;23.406;2023-03-11T00:21:20;10.60;;;8.87;;
3427;SDS011;1727;42.624;23.406;2023-03-11T00:23:46;11.30;;;8.50;;
3427;SDS011;1727;42.624;23.406;2023-03-11T00:26:14;6.57;;;5.97;;
3427;SDS011;1727;42.624;23.406;2023-03-11T00:28:41;8.47;;;6.47;;
3427;SDS011;1727;42.624;23.406;2023-03-11T00:31:09;5.53;;;4.43;;
3427;SDS011;1727;42.624;23.406;2023-03-11T00:33:37;7.90;;;4.23;;
3427;SDS011;1727;42.624;23.406;2023-03-11T00:36:04;4.10;;;3.70;;
3427;SDS011;1727;42.624;23.406;2023-03-11T00:38:32;4.20;;;3.80;;
3427;SDS011;1727;42.624;23.406;2023-03-11T00:40:58;7.33;;;4.73;;
3427;SDS011;1727;42.624;23.406;2023-03-11T00:43:27;4.27;;;3.73;;
3427;SDS011;1727;42.624;23.406;2023-03-11T00:45:54;4.23;;;3.50;;
3427;SDS011;1727;42.624;23.406;2023-03-11T00:48:21;10.27;;;5.10;;
3427;SDS011;1727;42.624;23.406;2023-03-11T00:50:49;6.83;;;5.07;;
3427;SDS011;1727;42.624;23.406;2023-03-11T00:53:16;6.97;;;3.70;;
3427;SDS011;1727;42.624;23.406;2023-03-11T00:55:43;6.67;;;3.60;;
3427;SDS011;1727;42.624;23.406;2023-03-11T00:58:10;6.13;;;3.20;;
3427;SDS011;1727;42.624;23.406;2023-03-11T01:00:39;2.53;;;2.33;;
3427;SDS011;1727;42.624;23.406;2023-03-11T01:03:05;2.77;;;2.50;;
3427;SDS011;1727;42.624;23.406;2023-03-11T01:05:33;3.50;;;2.67;;
3427;SDS011;1727;42.624;23.406;2023-03-11T01:08:00;3.33;;;2.97;;
3427;SDS011;1727;42.624;23.406;2023-03-11T01:10:27;2.97;;;2.67;;
3427;SDS011;1727;42.624;23.406;2023-03-11T01:12:55;5.23;;;3.13;;
3427;SDS011;1727;42.624;23.406;2023-03-11T01:15:23;2.93;;;2.73;;
3427;SDS011;1727;42.624;23.406;2023-03-11T01:17:54;1.97;;;1.87;;
3427;SDS011;1727;42.624;23.406;2023-03-11T01:20:21;2.50;;;2.23;;
3427;SDS011;1727;42.624;23.406;2023-03-11T01:22:48;2.90;;;2.40;;
3427;SDS011;1727;42.624;23.406;2023-03-11T01:25:16;5.10;;;2.97;;
3427;SDS011;1727;42.624;23.406;2023-03-11T01:27:44;4.13;;;2.20;;
3427;SDS011;1727;42.624;23.406;2023-03-11T01:30:12;5.47;;;3.63;;
3427;SDS011;1727;42.624;23.406;2023-03-11T01:32:45;2.23;;;2.03;;
3427;SDS011;1727;42.624;23.406;2023-03-11T01:35:14;4.80;;;2.30;;
3427;SDS011;1727;42.624;23.406;2023-03-11T01:37:43;2.00;;;1.80;;
3427;SDS011;1727;42.624;23.406;2023-03-11T01:40:11;2.27;;;2.03;;
3427;SDS011;1727;42.624;23.406;2023-03-11T01:42:40;2.60;;;2.40;;
3427;SDS011;1727;42.624;23.406;2023-03-11T01:45:15;2.30;;;2.10;;
3427;SDS011;1727;42.624;23.406;2023-03-11T01:48:27;4.13;;;2.50;;
3427;SDS011;1727;42.624;23.406;2023-03-11T01:50:55;2.87;;;2.67;;
3427;SDS011;1727;42.624;23.406;2023-03-11T01:53:22;2.97;;;2.77;;
3427;SDS011;1727;42.624;23.406;2023-03-11T01:55:50;3.23;;;3.00;;
3427;SDS011;1727;42.624;23.406;2023-03-11T01:58:25;2.97;;;2.77;;
3427;SDS011;1727;42.624;23.406;2023-03-11T02:00:55;5.40;;;2.70;;
3427;SDS011;1727;42.624;23.406;2023-03-11T02:03:25;3.53;;;3.10;;
3427;SDS011;1727;42.624;23.406;2023-03-11T02:05:56;3.37;;;2.70;;
3427;SDS011;1727;42.624;23.406;2023-03-11T02:08:26;3.50;;;3.20;;
3427;SDS011;1727;42.624;23.406;2023-03-11T02:10:54;3.60;;;3.30;;
3427;SDS011;1727;42.624;23.406;2023-03-11T02:13:22;5.10;;;3.70;;
3427;SDS011;1727;42.624;23.406;2023-03-11T02:15:49;3.67;;;3.33;;
3427;SDS011;1727;42.624;23.406;2023-03-11T02:18:16;8.30;;;6.97;;
3427;SDS011;1727;42.624;23.406;2023-03-11T02:20:46;11.00;;;10.00;;
3427;SDS011;1727;42.624;23.406;2023-03-11T02:23:17;10.17;;;9.20;;
3427;SDS011;1727;42.624;23.406;2023-03-11T02:25:50;9.73;;;8.67;;
3427;SDS011;1727;42.624;23.406;2023-03-11T02:28:22;7.90;;;7.13;;
3427;SDS011;1727;42.624;23.406;2023-03-11T02:30:50;7.83;;;7.03;;
3427;SDS011;1727;42.624;23.406;2023-03-11T02:33:18;8.97;;;7.67;;
3427;SDS011;1727;42.624;23.406;2023-03-11T02:35:45;8.13;;;7.33;;
3427;SDS011;1727;42.624;23.406;2023-03-11T02:38:12;9.13;;;8.23;;
3427;SDS011;1727;42.624;23.406;2023-03-11T02:40:49;8.60;;;7.77;;
3427;SDS011;1727;42.624;23.406;2023-03-11T02:43:22;9.13;;;5.53;;
3427;SDS011;1727;42.624;23.406;2023-03-11T02:45:53;5.33;;;4.53;;
3427;SDS011;1727;42.624;23.406;2023-03-11T02:48:21;4.40;;;4.00;;
3427;SDS011;1727;42.624;23.406;2023-03-11T02:50:49;5.60;;;3.80;;
3427;SDS011;1727;42.624;23.406;2023-03-11T02:53:16;3.70;;;3.40;;
3427;SDS011;1727;42.624;23.406;2023-03-11T02:55:43;4.53;;;3.40;;
3427;SDS011;1727;42.624;23.406;2023-03-11T02:58:09;4.87;;;4.40;;
3427;SDS011;1727;42.624;23.406;2023-03-11T03:00:38;4.40;;;3.97;;
3427;SDS011;1727;42.624;23.406;2023-03-11T03:03:04;4.00;;;3.70;;
3427;SDS011;1727;42.624;23.406;2023-03-11T03:05:31;4.63;;;4.10;;
3427;SDS011;1727;42.624;23.406;2023-03-11T03:07:58;7.17;;;5.40;;
3427;SDS011;1727;42.624;23.406;2023-03-11T03:10:26;4.43;;;4.03;;
3427;SDS011;1727;42.624;23.406;2023-03-11T03:12:53;3.70;;;3.40;;
3427;SDS011;1727;42.624;23.406;2023-03-11T03:15:20;4.10;;;3.80;;
3427;SDS011;1727;42.624;23.406;2023-03-11T03:17:48;4.90;;;4.40;;
3427;SDS011;1727;42.624;23.406;2023-03-11T03:20:16;4.23;;;3.53;;
3427;SDS011;1727;42.624;23.406;2023-03-11T03:22:46;4.53;;;4.10;;
3427;SDS011;1727;42.624;23.406;2023-03-11T03:25:14;3.63;;;3.33;;
3427;SDS011;1727;42.624;23.406;2023-03-11T03:27:40;4.40;;;3.83;;
3427;SDS011;1727;42.624;23.406;2023-03-11T03:30:08;4.37;;;4.00;;
3427;SDS011;1727;42.624;23.406;2023-03-11T03:32:36;4.50;;;4.10;;
3427;SDS011;1727;42.624;23.406;2023-03-11T03:35:05;3.93;;;3.60;;
3427;SDS011;1727;42.624;23.406;2023-03-11T03:37:32;3.80;;;3.50;;
3427;SDS011;1727;42.624;23.406;2023-03-11T03:40:00;4.87;;;3.73;;
3427;SDS011;1727;42.624;23.406;2023-03-11T03:42:31;4.90;;;3.50;;
3427;SDS011;1727;42.624;23.406;2023-03-11T03:44:58;4.50;;;4.10;;
3427;SDS011;1727;42.624;23.406;2023-03-11T03:47:24;5.00;;;4.33;;
3427;SDS011;1727;42.624;23.406;2023-03-11T03:49:51;4.30;;;3.63;;
3427;SDS011;1727;42.624;23.406;2023-03-11T03:52:19;6.37;;;5.30;;
3427;SDS011;1727;42.624;23.406;2023-03-11T03:54:46;5.50;;;5.00;;
3427;SDS011;1727;42.624;23.406;2023-03-11T03:57:13;4.03;;;3.27;;
3427;SDS011;1727;42.624;23.406;2023-03-11T03:59:40;3.93;;;3.37;;
3427;SDS011;1727;42.624;23.406;2023-03-11T04:02:06;9.60;;;5.97;;
3427;SDS011;1727;42.624;23.406;2023-03-11T04:04:33;7.00;;;5.33;;
3427;SDS011;1727;42.624;23.406;2023-03-11T04:07:02;9.93;;;7.10;;
3427;SDS011;1727;42.624;23.406;2023-03-11T04:09:31;11.17;;;7.20;;
3427;SDS011;1727;42.624;23.406;2023-03-11T04:11:58;8.50;;;7.70;;
3427;SDS011;1727;42.624;23.406;2023-03-11T04:14:25;12.20;;;10.00;;
3427;SDS011;1727;42.624;23.406;2023-03-11T04:16:52;9.83;;;8.73;;
3427;SDS011;1727;42.624;23.406;2023-03-11T04:19:18;8.47;;;7.67;;
3427;SDS011;1727;42.624;23.406;2023-03-11T04:21:45;10.63;;;9.50;;
3427;SDS011;1727;42.624;23.406;2023-03-11T04:24:12;14.33;;;10.07;;
3427;SDS011;1727;42.624;23.406;2023-03-11T04:26:40;13.37;;;11.97;;
3427;SDS011;1727;42.624;23.406;2023-03-11T04:29:07;12.37;;;11.10;;
3427;SDS011;1727;42.624;23.406;2023-03-11T04:31:33;12.53;;;11.07;;
3427;SDS011;1727;42.624;23.406;2023-03-11T04:34:00;15.60;;;11.90;;
3427;SDS011;1727;42.624;23.406;2023-03-11T04:36:27;13.93;;;11.90;;
3427;SDS011;1727;42.624;23.406;2023-03-11T04:38:54;14.07;;;12.67;;
3427;SDS011;1727;42.624;23.406;2023-03-11T04:41:21;11.97;;;10.30;;
3427;SDS011;1727;42.624;23.406;2023-03-11T04:43:50;9.33;;;8.27;;
3427;SDS011;1727;42.624;23.406;2023-03-11T04:46:16;7.20;;;6.50;;
3427;SDS011;1727;42.624;23.406;2023-03-11T04:48:43;7.00;;;6.30;;
3427;SDS011;1727;42.624;23.406;2023-03-11T04:51:10;5.07;;;4.50;;
3427;SDS011;1727;42.624;23.406;2023-03-11T04:53:37;3.70;;;3.40;;
3427;SDS011;1727;42.624;23.406;2023-03-11T04:56:04;3.83;;;2.17;;
3427;SDS011;1727;42.624;23.406;2023-03-11T04:58:30;2.57;;;2.37;;
3427;SDS011;1727;42.624;23.406;2023-03-11T05:00:59;2.83;;;2.63;;
3427;SDS011;1727;42.624;23.406;2023-03-11T05:03:25;3.77;;;2.80;;
3427;SDS011;1727;42.624;23.406;2023-03-11T05:05:52;2.80;;;2.60;;
3427;SDS011;1727;42.624;23.406;2023-03-11T05:08:21;2.17;;;2.07;;
3427;SDS011;1727;42.624;23.406;2023-03-11T05:10:49;3.60;;;3.10;;
3427;SDS011;1727;42.624;23.406;2023-03-11T05:13:17;3.17;;;2.47;;
3427;SDS011;1727;42.624;23.406;2023-03-11T05:15:44;1.80;;;1.40;;
3427;SDS011;1727;42.624;23.406;2023-03-11T05:18:13;1.50;;;1.40;;
3427;SDS011;1727;42.624;23.406;2023-03-11T05:20:40;1.80;;;1.67;;
3427;SDS011;1727;42.624;23.406;2023-03-11T05:23:07;2.83;;;2.50;;
3427;SDS011;1727;42.624;23.406;2023-03-11T05:25:33;2.83;;;2.60;;
3427;SDS011;1727;42.624;23.406;2023-03-11T05:28:00;4.33;;;3.93;;
3427;SDS011;1727;42.624;23.406;2023-03-11T05:30:27;3.80;;;3.00;;
3427;SDS011;1727;42.624;23.406;2023-03-11T05:32:54;3.40;;;3.17;;
3427;SDS011;1727;42.624;23.406;2023-03-11T05:35:22;3.70;;;3.40;;
3427;SDS011;1727;42.624;23.406;2023-03-11T05:37:49;2.80;;;2.50;;
3427;SDS011;1727;42.624;23.406;2023-03-11T05:40:17;3.00;;;2.70;;
3427;SDS011;1727;42.624;23.406;2023-03-11T05:42:45;8.07;;;2.80;;
3427;SDS011;1727;42.624;23.406;2023-03-11T05:45:12;2.27;;;2.07;;
3427;SDS011;1727;42.624;23.406;2023-03-11T05:47:39;3.13;;;1.90;;
3427;SDS011;1727;42.624;23.406;2023-03-11T05:50:07;1.80;;;1.70;;
3427;SDS011;1727;42.624;23.406;2023-03-11T05:52:36;1.57;;;1.33;;
3427;SDS011;1727;42.624;23.406;2023-03-11T05:55:03;1.40;;;1.30;;
3427;SDS011;1727;42.624;23.406;2023-03-11T05:57:30;2.80;;;1.30;;
3427;SDS011;1727;42.624;23.406;2023-03-11T05:59:57;2.57;;;1.73;;
3427;SDS011;1727;42.624;23.406;2023-03-11T06:02:24;3.30;;;1.60;;
3427;SDS011;1727;42.624;23.406;2023-03-11T06:04:50;2.07;;;1.90;;
3427;SDS011;1727;42.624;23.406;2023-03-11T06:07:17;1.97;;;1.87;;
3427;SDS011;1727;42.624;23.406;2023-03-11T06:09:45;2.97;;;2.70;;
3427;SDS011;1727;42.624;23.406;2023-03-11T06:12:14;7.80;;;5.27;;
3427;SDS011;1727;42.624;23.406;2023-03-11T06:14:41;15.10;;;9.40;;
3427;SDS011;1727;42.624;23.406;2023-03-11T06:17:08;8.53;;;4.97;;
3427;SDS011;1727;42.624;23.406;2023-03-11T06:19:35;5.18;;;3.50;;
3427;SDS011;1727;42.624;23.406;2023-03-11T06:22:01;4.57;;;3.17;;
3427;SDS011;1727;42.624;23.406;2023-03-11T06:24:28;9.17;;;3.63;;
3427;SDS011;1727;42.624;23.406;2023-03-11T06:26:56;3.97;;;3.20;;
3427;SDS011;1727;42.624;23.406;2023-03-11T06:29:23;3.53;;;3.10;;
3427;SDS011;1727;42.624;23.406;2023-03-11T06:31:50;2.80;;;1.90;;
3427;SDS011;1727;42.624;23.406;2023-03-11T06:34:17;10.10;;;5.10;;
3427;SDS011;1727;42.624;23.406;2023-03-11T06:36:44;6.40;;;5.90;;
3427;SDS011;1727;42.624;23.406;2023-03-11T06:39:11;5.93;;;5.37;;
3427;SDS011;1727;42.624;23.406;2023-03-11T06:41:39;5.43;;;4.87;;
3427;SDS011;1727;42.624;23.406;2023-03-11T06:44:09;10.83;;;7.43;;
3427;SDS011;1727;42.624;23.406;2023-03-11T06:46:35;8.63;;;5.60;;
3427;SDS011;1727;42.624;23.406;2023-03-11T06:49:02;13.70;;;8.83;;
3427;SDS011;1727;42.624;23.406;2023-03-11T06:51:29;9.73;;;7.40;;
3427;SDS011;1727;42.624;23.406;2023-03-11T06:53:56;7.43;;;6.73;;
3427;SDS011;1727;42.624;23.406;2023-03-11T06:56:22;7.80;;;6.07;;
3427;SDS011;1727;42.624;23.406;2023-03-11T06:58:49;6.73;;;5.67;;
3427;SDS011;1727;42.624;23.406;2023-03-11T07:01:18;6.70;;;5.10;;
3427;SDS011;1727;42.624;23.406;2023-03-11T07:03:46;6.73;;;4.77;;
3427;SDS011;1727;42.624;23.406;2023-03-11T07:06:14;11.53;;;6.20;;
3427;SDS011;1727;42.624;23.406;2023-03-11T07:08:42;4.63;;;4.07;;
3427;SDS011;1727;42.624;23.406;2023-03-11T07:11:09;3.33;;;3.00;;
3427;SDS011;1727;42.624;23.406;2023-03-11T07:13:39;2.83;;;2.57;;
3427;SDS011;1727;42.624;23.406;2023-03-11T07:16:06;2.40;;;2.20;;
3427;SDS011;1727;42.624;23.406;2023-03-11T07:18:36;2.57;;;2.10;;
3427;SDS011;1727;42.624;23.406;2023-03-11T07:21:04;2.40;;;2.03;;
3427;SDS011;1727;42.624;23.406;2023-03-11T07:23:32;3.43;;;3.00;;
3427;SDS011;1727;42.624;23.406;2023-03-11T07:25:59;4.43;;;3.50;;
3427;SDS011;1727;42.624;23.406;2023-03-11T07:28:26;5.10;;;2.20;;
3427;SDS011;1727;42.624;23.406;2023-03-11T07:30:54;1.90;;;1.80;;
3427;SDS011;1727;42.624;23.406;2023-03-11T07:33:21;5.97;;;4.67;;
3427;SDS011;1727;42.624;23.406;2023-03-11T07:35:50;3.13;;;2.83;;
3427;SDS011;1727;42.624;23.406;2023-03-11T07:38:17;3.90;;;3.50;;
3427;SDS011;1727;42.624;23.406;2023-03-11T07:40:44;5.47;;;4.97;;
3427;SDS011;1727;42.624;23.406;2023-03-11T07:43:12;2.67;;;2.47;;
3427;SDS011;1727;42.624;23.406;2023-03-11T07:45:38;5.47;;;3.43;;
3427;SDS011;1727;42.624;23.406;2023-03-11T07:48:05;2.80;;;2.60;;
3427;SDS011;1727;42.624;23.406;2023-03-11T07:50:32;6.40;;;5.90;;
3427;SDS011;1727;42.624;23.406;2023-03-11T07:53:00;4.87;;;3.93;;
3427;SDS011;1727;42.624;23.406;2023-03-11T07:55:27;5.40;;;4.73;;
3427;SDS011;1727;42.624;23.406;2023-03-11T07:57:54;6.20;;;5.27;;
3427;SDS011;1727;42.624;23.406;2023-03-11T08:00:21;6.13;;;3.30;;
3427;SDS011;1727;42.624;23.406;2023-03-11T08:02:48;4.23;;;2.90;;
3427;SDS011;1727;42.624;23.406;2023-03-11T08:05:14;6.90;;;3.00;;
3427;SDS011;1727;42.624;23.406;2023-03-11T08:07:42;3.20;;;2.47;;
3427;SDS011;1727;42.624;23.406;2023-03-11T08:10:11;8.07;;;3.70;;
3427;SDS011;1727;42.624;23.406;2023-03-11T08:12:38;5.37;;;2.93;;
3427;SDS011;1727;42.624;23.406;2023-03-11T08:15:05;5.77;;;2.50;;
3427;SDS011;1727;42.624;23.406;2023-03-11T08:17:32;5.30;;;2.87;;
3427;SDS011;1727;42.624;23.406;2023-03-11T08:19:59;4.60;;;2.43;;
3427;SDS011;1727;42.624;23.406;2023-03-11T08:22:26;8.63;;;2.10;;
3427;SDS011;1727;42.624;23.406;2023-03-11T08:24:53;5.00;;;2.17;;
3427;SDS011;1727;42.624;23.406;2023-03-11T08:27:22;6.90;;;2.07;;
3427;SDS011;1727;42.624;23.406;2023-03-11T08:29:48;4.70;;;2.20;;
3427;SDS011;1727;42.624;23.406;2023-03-11T08:32:15;4.13;;;2.37;;
3427;SDS011;1727;42.624;23.406;2023-03-11T08:34:42;2.07;;;1.53;;
3427;SDS011;1727;42.624;23.406;2023-03-11T08:37:09;3.43;;;2.67;;
3427;SDS011;1727;42.624;23.406;2023-03-11T08:39:35;2.77;;;2.27;;
3427;SDS011;1727;42.624;23.406;2023-03-11T08:42:02;3.37;;;2.00;;
3427;SDS011;1727;42.624;23.406;2023-03-11T08:44:31;2.20;;;2.00;;
3427;SDS011;1727;42.624;23.406;2023-03-11T08:46:59;2.43;;;2.00;;
3427;SDS011;1727;42.624;23.406;2023-03-11T08:49:26;2.20;;;2.00;;
3427;SDS011;1727;42.624;23.406;2023-03-11T08:51:53;2.13;;;1.93;;
3427;SDS011;1727;42.624;23.406;2023-03-11T08:54:20;2.20;;;2.10;;
3427;SDS011;1727;42.624;23.406;2023-03-11T08:56:47;2.50;;;2.30;;
3427;SDS011;1727;42.624;23.406;2023-03-11T08:59:14;4.90;;;1.80;;
3427;SDS011;1727;42.624;23.406;2023-03-11T09:01:42;3.77;;;1.83;;
3427;SDS011;1727;42.624;23.406;2023-03-11T09:04:09;3.67;;;2.07;;
3427;SDS011;1727;42.624;23.406;2023-03-11T09:06:36;7.23;;;2.00;;
3427;SDS011;1727;42.624;23.406;2023-03-11T09:09:03;2.97;;;1.90;;
3427;SDS011;1727;42.624;23.406;2023-03-11T09:11:29;2.67;;;2.20;;
3427;SDS011;1727;42.624;23.406;2023-03-11T09:13:56;3.10;;;1.83;;
3427;SDS011;1727;42.624;23.406;2023-03-11T09:16:23;3.13;;;1.90;;
3427;SDS011;1727;42.624;23.406;2023-03-11T09:18:52;1.60;;;1.50;;
3427;SDS011;1727;42.624;23.406;2023-03-11T09:21:19;1.60;;;1.50;;
3427;SDS011;1727;42.624;23.406;2023-03-11T09:23:46;2.13;;;1.93;;
3427;SDS011;1727;42.624;23.406;2023-03-11T09:26:13;2.80;;;2.20;;
3427;SDS011;1727;42.624;23.406;2023-03-11T09:28:40;5.63;;;2.40;;
3427;SDS011;1727;42.624;23.406;2023-03-11T09:31:11;2.00;;;1.90;;
3427;SDS011;1727;42.624;23.406;2023-03-11T09:33:38;2.27;;;2.00;;
3427;SDS011;1727;42.624;23.406;2023-03-11T09:36:08;2.67;;;2.20;;
3427;SDS011;1727;42.624;23.406;2023-03-11T09:38:38;5.33;;;2.40;;
3427;SDS011;1727;42.624;23.406;2023-03-11T09:41:06;3.50;;;2.00;;
3427;SDS011;1727;42.624;23.406;2023-03-11T09:43:42;2.57;;;2.37;;
3427;SDS011;1727;42.624;23.406;2023-03-11T09:46:24;5.37;;;2.13;;
3427;SDS011;1727;42.624;23.406;2023-03-11T09:49:07;6.40;;;1.87;;
3427;SDS011;1727;42.624;23.406;2023-03-11T09:51:43;6.27;;;2.00;;
3427;SDS011;1727;42.624;23.406;2023-03-11T09:54:15;2.30;;;2.10;;
3427;SDS011;1727;42.624;23.406;2023-03-11T09:56:43;3.20;;;1.90;;
3427;SDS011;1727;42.624;23.406;2023-03-11T09:59:12;3.17;;;2.20;;
3427;SDS011;1727;42.624;23.406;2023-03-11T10:01:45;6.70;;;2.63;;
3427;SDS011;1727;42.624;23.406;2023-03-11T10:04:15;2.17;;;1.90;;
3427;SDS011;1727;42.624;23.406;2023-03-11T10:06:48;3.00;;;2.70;;
3427;SDS011;1727;42.624;23.406;2023-03-11T10:09:28;3.87;;;2.13;;
3427;SDS011;1727;42.624;23.406;2023-03-11T10:12:06;1.87;;;1.77;;
3427;SDS011;1727;42.624;23.406;2023-03-11T10:14:53;2.27;;;2.07;;
3427;SDS011;1727;42.624;23.406;2023-03-11T10:17:42;4.80;;;2.70;;
3427;SDS011;1727;42.624;23.406;2023-03-11T10:20:18;3.03;;;1.50;;
3427;SDS011;1727;42.624;23.406;2023-03-11T10:22:51;4.13;;;2.80;;
3427;SDS011;1727;42.624;23.406;2023-03-11T10:25:29;4.70;;;2.10;;
3427;SDS011;1727;42.624;23.406;2023-03-11T10:28:07;3.73;;;1.80;;
3427;SDS011;1727;42.624;23.406;2023-03-11T10:30:38;3.23;;;1.53;;
3427;SDS011;1727;42.624;23.406;2023-03-11T10:33:13;3.93;;;1.90;;
3427;SDS011;1727;42.624;23.406;2023-03-11T10:35:47;4.20;;;2.70;;
3427;SDS011;1727;42.624;23.406;2023-03-11T10:38:19;1.93;;;1.73;;
3427;SDS011;1727;42.624;23.406;2023-03-11T10:40:49;5.43;;;2.13;;
3427;SDS011;1727;42.624;23.406;2023-03-11T10:43:20;6.73;;;1.80;;
3427;SDS011;1727;42.624;23.406;2023-03-11T10:45:52;2.90;;;1.63;;
3427;SDS011;1727;42.624;23.406;2023-03-11T10:48:19;2.50;;;1.90;;
3427;SDS011;1727;42.624;23.406;2023-03-11T10:50:51;1.73;;;1.60;;
3427;SDS011;1727;42.624;23.406;2023-03-11T10:53:24;3.73;;;1.90;;
3427;SDS011;1727;42.624;23.406;2023-03-11T10:55:51;1.50;;;1.40;;
3427;SDS011;1727;42.624;23.406;2023-03-11T10:58:20;2.37;;;1.80;;
3427;SDS011;1727;42.624;23.406;2023-03-11T11:00:58;4.00;;;2.27;;
3427;SDS011;1727;42.624;23.406;2023-03-11T11:03:27;2.30;;;2.10;;
3427;SDS011;1727;42.624;23.406;2023-03-11T11:05:58;1.67;;;1.40;;
3427;SDS011;1727;42.624;23.406;2023-03-11T11:08:28;2.47;;;2.00;;
3427;SDS011;1727;42.624;23.406;2023-03-11T11:10:56;2.47;;;2.27;;
3427;SDS011;1727;42.624;23.406;2023-03-11T11:13:24;2.77;;;2.50;;
3427;SDS011;1727;42.624;23.406;2023-03-11T11:15:55;2.23;;;1.87;;
3427;SDS011;1727;42.624;23.406;2023-03-11T11:18:24;5.70;;;2.90;;
3427;SDS011;1727;42.624;23.406;2023-03-11T11:20:58;2.27;;;1.90;;
3427;SDS011;1727;42.624;23.406;2023-03-11T11:23:31;5.90;;;4.47;;
3427;SDS011;1727;42.624;23.406;2023-03-11T11:26:02;5.83;;;4.30;;
3427;SDS011;1727;42.624;23.406;2023-03-11T11:28:31;11.90;;;5.00;;
3427;SDS011;1727;42.624;23.406;2023-03-11T11:31:00;4.70;;;4.17;;
3427;SDS011;1727;42.624;23.406;2023-03-11T11:33:29;3.40;;;3.03;;
3427;SDS011;1727;42.624;23.406;2023-03-11T11:35:58;4.53;;;2.40;;
3427;SDS011;1727;42.624;23.406;2023-03-11T11:38:27;2.20;;;2.00;;
3427;SDS011;1727;42.624;23.406;2023-03-11T11:40:57;7.40;;;3.33;;
3427;SDS011;1727;42.624;23.406;2023-03-11T11:46:14;3.50;;;2.30;;
3427;SDS011;1727;42.624;23.406;2023-03-11T11:48:49;4.90;;;2.53;;
3427;SDS011;1727;42.624;23.406;2023-03-11T11:51:22;2.90;;;2.40;;
3427;SDS011;1727;42.624;23.406;2023-03-11T11:53:54;8.10;;;3.60;;
3427;SDS011;1727;42.624;23.406;2023-03-11T11:56:27;4.23;;;3.07;;
3427;SDS011;1727;42.624;23.406;2023-03-11T11:58:54;2.67;;;2.03;;
3427;SDS011;1727;42.624;23.406;2023-03-11T12:01:24;2.80;;;2.10;;
3427;SDS011;1727;42.624;23.406;2023-03-11T12:04:07;2.30;;;1.93;;
3427;SDS011;1727;42.624;23.406;2023-03-11T12:06:53;2.10;;;1.90;;
3427;SDS011;1727;42.624;23.406;2023-03-11T12:09:32;2.43;;;2.20;;
3427;SDS011;1727;42.624;23.406;2023-03-11T12:12:07;10.00;;;2.63;;
3427;SDS011;1727;42.624;23.406;2023-03-11T12:14:44;4.03;;;1.90;;
3427;SDS011;1727;42.624;23.406;2023-03-11T12:17:19;6.23;;;2.37;;
3427;SDS011;1727;42.624;23.406;2023-03-11T12:19:50;7.57;;;3.27;;
3427;SDS011;1727;42.624;23.406;2023-03-11T12:25:22;3.10;;;2.10;;
3427;SDS011;1727;42.624;23.406;2023-03-11T12:27:59;6.23;;;2.70;;
3427;SDS011;1727;42.624;23.406;2023-03-11T12:30:34;3.00;;;2.70;;
3427;SDS011;1727;42.624;23.406;2023-03-11T12:33:09;7.33;;;2.10;;
3427;SDS011;1727;42.624;23.406;2023-03-11T12:35:46;5.67;;;2.33;;
3427;SDS011;1727;42.624;23.406;2023-03-11T12:38:16;2.47;;;1.77;;
3427;SDS011;1727;42.624;23.406;2023-03-11T12:40:50;6.37;;;2.57;;
3427;SDS011;1727;42.624;23.406;2023-03-11T12:43:26;2.87;;;1.93;;
3427;SDS011;1727;42.624;23.406;2023-03-11T12:46:08;1.90;;;1.70;;
3427;SDS011;1727;42.624;23.406;2023-03-11T12:48:41;1.60;;;1.43;;
3427;SDS011;1727;42.624;23.406;2023-03-11T12:54:25;6.63;;;2.27;;
3427;SDS011;1727;42.624;23.406;2023-03-11T12:56:55;2.37;;;1.70;;
3427;SDS011;1727;42.624;23.406;2023-03-11T13:02:22;1.60;;;1.50;;
3427;SDS011;1727;42.624;23.406;2023-03-11T13:05:04;1.67;;;1.37;;
3427;SDS011;1727;42.624;23.406;2023-03-11T13:07:46;1.50;;;1.37;;
3427;SDS011;1727;42.624;23.406;2023-03-11T13:10:20;2.03;;;1.83;;
3427;SDS011;1727;42.624;23.406;2023-03-11T13:13:00;5.37;;;2.00;;
3427;SDS011;1727;42.624;23.406;2023-03-11T13:15:30;1.80;;;1.50;;
3427;SDS011;1727;42.624;23.406;2023-03-11T13:18:01;2.53;;;1.60;;
3427;SDS011;1727;42.624;23.406;2023-03-11T13:20:47;1.80;;;1.30;;
3427;SDS011;1727;42.624;23.406;2023-03-11T13:26:16;3.80;;;1.77;;
3427;SDS011;1727;42.624;23.406;2023-03-11T13:32:01;2.60;;;2.40;;
3427;SDS011;1727;42.624;23.406;2023-03-11T13:34:43;7.40;;;4.73;;
3427;SDS011;1727;42.624;23.406;2023-03-11T13:37:19;5.33;;;3.07;;
3427;SDS011;1727;42.624;23.406;2023-03-11T13:39:52;3.50;;;3.20;;
3427;SDS011;1727;42.624;23.406;2023-03-11T13:42:27;7.60;;;2.77;;
3427;SDS011;1727;42.624;23.406;2023-03-11T13:44:56;16.27;;;3.87;;
3427;SDS011;1727;42.624;23.406;2023-03-11T13:47:25;3.87;;;2.03;;
3427;SDS011;1727;42.624;23.406;2023-03-11T13:49:58;4.10;;;2.47;;
3427;SDS011;1727;42.624;23.406;2023-03-11T13:52:29;4.57;;;2.50;;
3427;SDS011;1727;42.624;23.406;2023-03-11T13:55:00;2.93;;;2.50;;
3427;SDS011;1727;42.624;23.406;2023-03-11T13:57:30;3.63;;;3.20;;
3427;SDS011;1727;42.624;23.406;2023-03-11T14:00:03;2.50;;;2.00;;
3427;SDS011;1727;42.624;23.406;2023-03-11T14:02:43;3.03;;;2.13;;
3427;SDS011;1727;42.624;23.406;2023-03-11T14:05:15;3.60;;;3.27;;
3427;SDS011;1727;42.624;23.406;2023-03-11T14:07:46;8.43;;;4.70;;
3427;SDS011;1727;42.624;23.406;2023-03-11T14:13:04;28.60;;;13.93;;
3427;SDS011;1727;42.624;23.406;2023-03-11T14:15:44;19.23;;;11.30;;
3427;SDS011;1727;42.624;23.406;2023-03-11T14:21:02;2.80;;;2.60;;
3427;SDS011;1727;42.624;23.406;2023-03-11T14:23:32;2.70;;;2.50;;
3427;SDS011;1727;42.624;23.406;2023-03-11T14:26:01;2.80;;;2.40;;
3427;SDS011;1727;42.624;23.406;2023-03-11T14:28:32;2.57;;;2.10;;
3427;SDS011;1727;42.624;23.406;2023-03-11T14:31:03;2.00;;;1.90;;
3427;SDS011;1727;42.624;23.406;2023-03-11T14:33:30;1.87;;;1.70;;
3427;SDS011;1727;42.624;23.406;2023-03-11T14:35:59;2.13;;;1.97;;
3427;SDS011;1727;42.624;23.406;2023-03-11T14:38:29;2.43;;;2.23;;
3427;SDS011;1727;42.624;23.406;2023-03-11T14:40:57;2.50;;;2.30;;
3427;SDS011;1727;42.624;23.406;2023-03-11T14:43:25;3.43;;;3.13;;
3427;SDS011;1727;42.624;23.406;2023-03-11T14:45:54;16.77;;;10.83;;
3427;SDS011;1727;42.624;23.406;2023-03-11T14:48:23;21.50;;;11.67;;
3427;SDS011;1727;42.624;23.406;2023-03-11T14:50:53;11.50;;;8.90;;
3427;SDS011;1727;42.624;23.406;2023-03-11T14:53:25;9.47;;;7.50;;
3427;SDS011;1727;42.624;23.406;2023-03-11T14:55:55;13.03;;;6.47;;
3427;SDS011;1727;42.624;23.406;2023-03-11T14:58:25;10.83;;;7.93;;
3427;SDS011;1727;42.624;23.406;2023-03-11T15:00:59;16.97;;;10.93;;
3427;SDS011;1727;42.624;23.406;2023-03-11T15:03:29;13.73;;;10.77;;
3427;SDS011;1727;42.624;23.406;2023-03-11T15:05:59;17.90;;;12.17;;
3427;SDS011;1727;42.624;23.406;2023-03-11T15:08:30;10.33;;;5.70;;
3427;SDS011;1727;42.624;23.406;2023-03-11T15:11:03;10.73;;;7.90;;
3427;SDS011;1727;42.624;23.406;2023-03-11T15:13:43;8.60;;;6.53;;
3427;SDS011;1727;42.624;23.406;2023-03-11T15:16:22;8.13;;;5.00;;
3427;SDS011;1727;42.624;23.406;2023-03-11T15:18:51;8.73;;;6.20;;
3427;SDS011;1727;42.624;23.406;2023-03-11T15:21:19;9.20;;;7.00;;
3427;SDS011;1727;42.624;23.406;2023-03-11T15:23:49;14.30;;;8.70;;
3427;SDS011;1727;42.624;23.406;2023-03-11T15:26:19;8.87;;;6.83;;
3427;SDS011;1727;42.624;23.406;2023-03-11T15:28:52;9.73;;;7.17;;
3427;SDS011;1727;42.624;23.406;2023-03-11T15:31:31;14.87;;;9.70;;
3427;SDS011;1727;42.624;23.406;2023-03-11T15:34:07;14.90;;;11.67;;
3427;SDS011;1727;42.624;23.406;2023-03-11T15:36:36;26.53;;;18.37;;